Time;durP1;ratioP1;P1;durP2;ratioP2;P2;SDS_P1;SDS_P2;PMS_P1;PMS_P2;Temp;Humidity;BMP_temperature;BMP_pressure;BME280_temperature;BME280_humidity;BME280_pressure;Samples;Min_cycle;Max_cycle;Signal;HPM_P1;HPM_P2
2023/08/01 00:00:05;;;;;;;13.13;4.40;;;;;;;15.38;100.00;99661.63;5018520;28;20207;-45
2023/08/01 00:02:37;;;;;;;4.97;4.43;;;;;;;15.37;100.00;99657.22;5019371;28;20212;-47
2023/08/01 00:05:04;;;;;;;5.57;4.97;;;;;;;15.36;100.00;99658.19;5014433;28;20311;-46
2023/08/01 00:07:29;;;;;;;4.88;4.47;;;;;;;15.37;100.00;99649.13;5017610;28;20558;-48
2023/08/01 00:09:55;;;;;;;4.63;4.20;;;;;;;15.41;100.00;99650.63;5016715;28;20220;-48
2023/08/01 00:12:20;;;;;;;5.45;4.95;;;;;;;15.39;100.00;99643.59;5017448;28;20204;-45
2023/08/01 00:14:46;;;;;;;5.00;4.60;;;;;;;15.43;100.00;99645.06;5022281;28;20589;-45
2023/08/01 00:17:11;;;;;;;5.00;4.60;;;;;;;15.44;100.00;99644.97;5021170;28;20196;-46
2023/08/01 00:19:37;;;;;;;6.32;5.70;;;;;;;15.40;100.00;99638.06;5020512;28;20662;-46
2023/08/01 00:22:03;;;;;;;7.03;5.03;;;;;;;15.43;100.00;99636.97;5018114;28;20186;-45
2023/08/01 00:24:28;;;;;;;7.57;4.93;;;;;;;15.37;100.00;99640.16;5016098;28;20202;-47
2023/08/01 00:26:56;;;;;;;5.38;4.90;;;;;;;15.41;100.00;99647.03;5014541;28;20204;-46
2023/08/01 00:29:23;;;;;;;7.72;5.07;;;;;;;15.38;100.00;99631.09;4998371;28;20702;-45
2023/08/01 00:31:49;;;;;;;5.43;4.93;;;;;;;15.33;100.00;99622.50;5017855;28;20215;-47
2023/08/01 00:34:15;;;;;;;5.93;5.40;;;;;;;15.32;100.00;99631.56;5018855;28;20172;-48
2023/08/01 00:36:40;;;;;;;7.40;5.45;;;;;;;15.32;100.00;99612.66;5004825;28;20250;-46
2023/08/01 00:39:06;;;;;;;5.35;4.95;;;;;;;15.29;100.00;99615.59;5011926;28;20566;-45
2023/08/01 00:41:31;;;;;;;4.85;4.45;;;;;;;15.27;100.00;99612.16;5010411;28;20194;-47
2023/08/01 00:43:57;;;;;;;4.40;4.00;;;;;;;15.24;100.00;99606.03;5021127;28;20235;-46
2023/08/01 00:46:22;;;;;;;4.60;4.20;;;;;;;15.29;100.00;99604.81;5014397;28;20199;-48
2023/08/01 00:48:48;;;;;;;6.35;3.42;;;;;;;15.28;100.00;99597.69;5017912;28;20749;-46
2023/08/01 00:51:15;;;;;;;4.85;3.03;;;;;;;15.17;100.00;99585.88;5017751;28;20222;-47
2023/08/01 00:53:40;;;;;;;3.42;3.15;;;;;;;15.17;100.00;99585.88;5021849;28;20184;-46
2023/08/01 00:56:06;;;;;;;3.05;2.85;;;;;;;15.13;100.00;99584.41;5018528;28;20188;-45
2023/08/01 00:58:32;;;;;;;3.30;2.47;;;;;;;15.14;100.00;99580.72;5015202;28;20260;-45
2023/08/01 01:00:59;;;;;;;4.07;2.50;;;;;;;15.04;100.00;99571.63;5016486;28;20180;-46
2023/08/01 01:03:25;;;;;;;2.83;2.40;;;;;;;15.01;100.00;99566.47;5021346;28;20199;-46
2023/08/01 01:06:01;;;;;;;2.67;2.00;;;;;;;15.03;100.00;99551.03;5000826;28;20184;-49
2023/08/01 01:08:27;;;;;;;2.22;2.13;;;;;;;15.14;100.00;99548.34;5007629;28;20208;-46
2023/08/01 01:10:52;;;;;;;2.30;2.20;;;;;;;15.07;100.00;99544.41;5015714;28;20627;-48
2023/08/01 01:13:18;;;;;;;2.40;1.98;;;;;;;15.06;100.00;99533.75;5018682;28;20180;-47
2023/08/01 01:15:43;;;;;;;2.30;1.90;;;;;;;15.08;100.00;99526.38;5009701;28;20187;-46
2023/08/01 01:18:09;;;;;;;1.80;1.70;;;;;;;15.06;100.00;99518.41;5020135;28;20215;-47
2023/08/01 01:20:35;;;;;;;2.25;1.88;;;;;;;15.01;100.00;99521.47;5001587;28;20188;-47
2023/08/01 01:23:03;;;;;;;1.67;1.58;;;;;;;15.03;100.00;99518.66;5006851;28;20200;-48
2023/08/01 01:25:30;;;;;;;1.80;1.70;;;;;;;14.95;100.00;99513.00;5022142;28;20181;-47
2023/08/01 01:27:57;;;;;;;2.70;1.67;;;;;;;14.99;100.00;99511.78;5021726;28;20240;-47
2023/08/01 01:30:25;;;;;;;2.25;1.80;;;;;;;14.86;100.00;99498.38;5023213;28;20253;-45
2023/08/01 01:32:51;;;;;;;2.20;2.00;;;;;;;14.88;100.00;99499.13;5026792;28;20180;-45
2023/08/01 01:35:18;;;;;;;1.88;1.77;;;;;;;14.88;100.00;99503.66;5020497;28;20597;-47
2023/08/01 01:37:43;;;;;;;2.35;2.15;;;;;;;14.88;100.00;99495.56;5019905;28;20211;-44
2023/08/01 01:40:09;;;;;;;2.15;1.77;;;;;;;14.87;100.00;99504.63;4995486;28;20366;-46
2023/08/01 01:42:34;;;;;;;3.00;2.00;;;;;;;14.83;100.00;99499.47;5019465;28;20212;-47
2023/08/01 01:45:00;;;;;;;3.75;2.40;;;;;;;14.83;100.00;99501.34;5008354;28;20271;-41
2023/08/01 01:47:25;;;;;;;2.95;2.75;;;;;;;14.85;100.00;99496.69;5013348;28;20219;-48
2023/08/01 01:49:52;;;;;;;3.38;3.05;;;;;;;14.83;100.00;99486.00;5013863;28;20611;-45
2023/08/01 01:52:17;;;;;;;3.92;3.58;;;;;;;14.87;100.00;99491.16;5027470;28;20303;-42
2023/08/01 01:54:43;;;;;;;4.32;3.78;;;;;;;14.90;100.00;99496.31;5012883;28;20657;-43
2023/08/01 01:57:08;;;;;;;5.03;4.15;;;;;;;14.90;100.00;99488.22;5029822;28;20211;-46
2023/08/01 01:59:34;;;;;;;5.18;4.68;;;;;;;14.93;100.00;99496.06;5025433;28;20184;-43
2023/08/01 02:01:59;;;;;;;3.85;3.55;;;;;;;14.97;100.00;99489.47;5011686;28;20190;-42
2023/08/01 02:04:25;;;;;;;6.70;4.57;;;;;;;15.03;100.00;99489.00;5026168;28;20180;-44
2023/08/01 02:06:52;;;;;;;6.50;5.82;;;;;;;14.97;100.00;99486.75;5012991;28;20254;-42
2023/08/01 02:09:18;;;;;;;5.32;4.43;;;;;;;15.04;100.00;99488.00;5013038;28;20196;-42
2023/08/01 02:11:43;;;;;;;5.05;4.65;;;;;;;15.08;100.00;99477.84;5012573;28;20718;-42
2023/08/01 02:14:09;;;;;;;6.95;6.25;;;;;;;15.06;100.00;99475.25;5030623;28;20203;-49
2023/08/01 02:16:34;;;;;;;6.85;6.15;;;;;;;15.06;100.00;99466.31;5012455;28;20204;-44
2023/08/01 02:19:00;;;;;;;7.22;6.57;;;;;;;15.07;100.00;99457.25;5013052;28;20673;-43
2023/08/01 02:21:25;;;;;;;10.48;7.10;;;;;;;15.08;100.00;99454.41;5012484;28;20217;-47
2023/08/01 02:23:51;;;;;;;8.00;7.30;;;;;;;15.12;100.00;99460.44;5011232;28;20522;-41
2023/08/01 02:26:16;;;;;;;9.50;7.45;;;;;;;15.08;100.00;99454.41;5030471;28;20196;-42
2023/08/01 02:28:42;;;;;;;9.27;7.07;;;;;;;15.14;100.00;99461.16;5015367;28;20592;-46
2023/08/01 02:31:08;;;;;;;8.82;8.02;;;;;;;15.13;100.00;99459.44;5029950;28;20170;-43
2023/08/01 02:33:33;;;;;;;11.45;8.07;;;;;;;15.12;100.00;99444.25;5012609;28;20587;-44
2023/08/01 02:36:00;;;;;;;7.82;7.10;;;;;;;15.21;100.00;99452.44;5023342;28;20727;-50
2023/08/01 02:38:26;;;;;;;9.40;8.25;;;;;;;15.17;100.00;99448.28;5026686;28;20283;-41
2023/08/01 02:40:51;;;;;;;8.88;8.07;;;;;;;15.22;100.00;99442.53;5028576;28;20267;-44
2023/08/01 02:43:17;;;;;;;9.43;8.25;;;;;;;15.15;100.00;99434.09;5029986;28;20283;-48
2023/08/01 02:45:42;;;;;;;9.55;8.38;;;;;;;15.17;100.00;99440.19;5027233;28;20528;-42
2023/08/01 02:48:08;;;;;;;8.40;7.68;;;;;;;15.15;100.00;99436.78;5016091;28;20195;-42
2023/08/01 02:50:33;;;;;;;8.93;8.02;;;;;;;15.15;100.00;99436.78;5029332;28;20278;-48
2023/08/01 02:52:59;;;;;;;8.48;7.75;;;;;;;15.14;100.00;99431.50;5029538;28;20477;-43
2023/08/01 02:55:24;;;;;;;8.07;7.30;;;;;;;15.15;100.00;99420.59;5027158;28;20556;-43
2023/08/01 02:57:50;;;;;;;10.35;7.70;;;;;;;15.08;100.00;99413.94;5011370;28;20255;-49
2023/08/01 03:00:17;;;;;;;8.32;7.47;;;;;;;15.03;100.00;99417.00;5009870;28;20172;-47
2023/08/01 03:02:43;;;;;;;7.78;6.97;;;;;;;15.06;100.00;99415.06;5025217;28;20295;-44
2023/08/01 03:05:09;;;;;;;7.07;6.47;;;;;;;15.11;100.00;99408.31;5028256;28;20182;-46
2023/08/01 03:07:35;;;;;;;7.53;6.80;;;;;;;15.06;100.00;99410.50;5027399;28;20281;-45
2023/08/01 03:10:02;;;;;;;7.15;6.55;;;;;;;15.02;100.00;99406.34;5028750;28;20613;-46
2023/08/01 03:12:27;;;;;;;7.70;7.00;;;;;;;15.04;100.00;99405.25;5028491;28;20180;-44
2023/08/01 03:14:53;;;;;;;7.95;7.15;;;;;;;15.08;100.00;99396.91;5011353;28;20191;-49
2023/08/01 03:17:18;;;;;;;8.20;7.35;;;;;;;15.04;100.00;99402.56;5030196;28;20274;-43
2023/08/01 03:19:44;;;;;;;10.35;7.90;;;;;;;15.00;100.00;99403.78;5026419;28;20258;-44
2023/08/01 03:22:10;;;;;;;9.10;8.20;;;;;;;15.00;100.00;99397.53;5029139;28;20168;-47
2023/08/01 03:24:36;;;;;;;9.68;7.72;;;;;;;14.94;100.00;99396.16;5028453;28;20533;-47
2023/08/01 03:27:01;;;;;;;8.02;6.97;;;;;;;14.97;100.00;99393.22;5010107;28;20209;-42
2023/08/01 03:29:27;;;;;;;7.13;6.53;;;;;;;15.00;100.00;99408.31;5012929;28;20239;-43
2023/08/01 03:31:53;;;;;;;10.68;7.80;;;;;;;14.95;100.00;99392.47;5014097;28;20227;-44
2023/08/01 03:34:19;;;;;;;7.55;6.72;;;;;;;14.90;100.00;99401.94;5027399;28;20771;-43
2023/08/01 03:36:45;;;;;;;10.18;7.65;;;;;;;14.93;100.00;99394.44;5026853;28;20210;-47
2023/08/01 03:39:11;;;;;;;6.82;6.22;;;;;;;14.89;100.00;99400.19;5026426;28;20568;-46
2023/08/01 03:41:37;;;;;;;9.82;7.50;;;;;;;14.91;100.00;99398.25;5026803;28;20176;-43
2023/08/01 03:44:03;;;;;;;7.82;6.97;;;;;;;14.96;100.00;99382.56;5008401;28;20735;-43
2023/08/01 03:46:29;;;;;;;11.45;7.18;;;;;;;14.94;100.00;99379.13;5017580;28;20195;-47
2023/08/01 03:48:54;;;;;;;10.13;7.70;;;;;;;14.92;100.00;99375.69;5028576;28;20594;-45
2023/08/01 03:51:20;;;;;;;8.13;7.32;;;;;;;14.89;100.00;99379.50;5021584;28;20184;-43
2023/08/01 03:53:46;;;;;;;8.35;7.30;;;;;;;14.91;100.00;99372.16;5027645;28;20610;-45
2023/08/01 03:56:12;;;;;;;9.55;7.90;;;;;;;14.90;100.00;99372.28;5026925;28;20192;-45
2023/08/01 03:58:37;;;;;;;9.13;7.68;;;;;;;14.93;100.00;99364.78;5024448;28;20613;-50
2023/08/01 04:01:03;;;;;;;9.55;8.02;;;;;;;14.90;100.00;99356.94;5012540;28;20188;-43
2023/08/01 04:03:28;;;;;;;8.10;7.40;;;;;;;14.96;100.00;99369.09;5023046;28;20782;-44
2023/08/01 04:05:54;;;;;;;7.80;7.00;;;;;;;15.01;100.00;99366.88;5015341;28;20176;-49
2023/08/01 04:08:20;;;;;;;10.00;7.50;;;;;;;15.00;100.00;99360.63;5030325;28;20187;-43
2023/08/01 04:10:45;;;;;;;8.80;7.72;;;;;;;15.01;100.00;99366.88;5030569;28;20203;-44
2023/08/01 04:13:11;;;;;;;8.48;7.63;;;;;;;15.00;100.00;99367.88;5014649;28;20171;-45
2023/08/01 04:15:37;;;;;;;11.30;8.55;;;;;;;15.00;100.00;99355.22;5028230;28;20242;-48
2023/08/01 04:18:02;;;;;;;9.13;8.23;;;;;;;15.01;100.00;99358.78;5039801;28;20564;-45
2023/08/01 04:20:28;;;;;;;9.35;7.60;;;;;;;15.00;100.00;99355.22;5029147;28;20184;-44
2023/08/01 04:22:54;;;;;;;9.38;8.07;;;;;;;14.97;100.00;99347.38;5033797;28;20239;-46
2023/08/01 04:25:20;;;;;;;8.15;7.35;;;;;;;15.00;100.00;99351.69;5021674;28;20543;-45
2023/08/01 04:27:45;;;;;;;7.65;6.97;;;;;;;15.02;100.00;99337.09;5023701;28;20285;-49
2023/08/01 04:30:11;;;;;;;7.78;6.97;;;;;;;14.98;100.00;99335.63;5028157;28;20206;-43
2023/08/01 04:32:36;;;;;;;7.80;6.32;;;;;;;15.02;100.00;99339.78;5019920;28;20187;-44
2023/08/01 04:35:02;;;;;;;7.53;6.82;;;;;;;15.01;100.00;99338.06;5024529;28;20322;-45
2023/08/01 04:37:28;;;;;;;6.82;6.13;;;;;;;15.03;100.00;99341.50;5025602;28;20206;-43
2023/08/01 04:39:53;;;;;;;7.10;6.13;;;;;;;15.06;100.00;99345.78;5026631;28;20270;-44
2023/08/01 04:42:19;;;;;;;7.00;6.40;;;;;;;15.00;100.00;99341.75;5030319;28;20173;-44
2023/08/01 04:44:44;;;;;;;6.47;5.97;;;;;;;15.01;100.00;99338.06;5028364;28;20191;-42
2023/08/01 04:47:10;;;;;;;6.38;5.80;;;;;;;15.08;100.00;99337.56;5036349;28;20524;-44
2023/08/01 04:49:36;;;;;;;7.57;6.88;;;;;;;15.11;100.00;99348.97;5028737;28;20189;-44
2023/08/01 04:52:02;;;;;;;7.75;6.78;;;;;;;15.10;100.00;99355.34;5032261;28;20207;-44
2023/08/01 04:54:28;;;;;;;8.00;7.22;;;;;;;15.04;100.00;99353.13;5025781;28;20195;-47
2023/08/01 04:56:53;;;;;;;9.77;8.23;;;;;;;15.09;100.00;99348.25;5024740;28;20200;-48
2023/08/01 04:59:19;;;;;;;8.32;7.50;;;;;;;15.11;100.00;99350.78;5020510;28;20175;-42
2023/08/01 05:01:44;;;;;;;8.60;7.70;;;;;;;15.14;100.00;99355.97;5031343;28;20214;-42
2023/08/01 05:04:10;;;;;;;6.95;6.10;;;;;;;15.24;100.00;99354.25;5035142;28;20199;-48
2023/08/01 05:06:36;;;;;;;8.07;7.38;;;;;;;15.25;100.00;99346.00;5028936;28;20287;-49
2023/08/01 05:09:02;;;;;;;9.07;8.18;;;;;;;15.14;100.00;99337.06;5028376;28;20734;-44
2023/08/01 05:11:27;;;;;;;7.50;6.80;;;;;;;15.16;100.00;99335.09;5045900;22;20270;-48
2023/08/01 05:13:53;;;;;;;9.85;7.60;;;;;;;15.12;100.00;99336.34;5027554;28;20686;-47
2023/08/01 05:16:18;;;;;;;9.85;7.03;;;;;;;15.13;100.00;99324.56;5029484;28;20249;-48
2023/08/01 05:18:44;;;;;;;7.22;6.50;;;;;;;15.10;100.00;99341.00;5028947;28;20172;-47
2023/08/01 05:21:10;;;;;;;7.50;6.80;;;;;;;15.10;100.00;99331.06;5027767;28;20259;-48
2023/08/01 05:23:35;;;;;;;5.68;5.25;;;;;;;15.04;100.00;99336.94;5028467;28;20723;-48
2023/08/01 05:26:01;;;;;;;4.65;4.25;;;;;;;14.92;100.00;99337.94;5027086;28;20589;-45
2023/08/01 05:28:26;;;;;;;3.38;3.08;;;;;;;14.84;100.00;99333.16;5030544;28;20763;-49
2023/08/01 05:30:52;;;;;;;2.67;2.47;;;;;;;14.80;100.00;99329.88;5029152;28;20267;-47
2023/08/01 05:33:17;;;;;;;2.78;2.47;;;;;;;14.83;100.00;99326.91;5032350;28;20175;-41
2023/08/01 05:35:43;;;;;;;2.47;2.13;;;;;;;14.83;100.00;99332.31;5032714;28;20433;-39
2023/08/01 05:38:08;;;;;;;2.03;1.85;;;;;;;14.91;100.00;99337.09;5012754;28;20294;-40
2023/08/01 05:40:34;;;;;;;3.03;2.33;;;;;;;14.85;100.00;99332.19;5030012;28;20562;-43
2023/08/01 05:42:59;;;;;;;1.85;1.75;;;;;;;14.87;100.00;99332.94;5031762;28;20889;-42
2023/08/01 05:45:25;;;;;;;1.98;1.88;;;;;;;14.89;100.00;99338.19;5031994;28;20860;-43
2023/08/01 05:47:50;;;;;;;2.22;2.00;;;;;;;14.82;100.00;99338.69;5030547;28;20743;-41
2023/08/01 05:50:16;;;;;;;1.67;1.58;;;;;;;14.89;100.00;99343.56;5031556;28;20183;-40
2023/08/01 05:52:42;;;;;;;1.52;1.40;;;;;;;14.67;100.00;99336.34;5031224;28;20548;-41
2023/08/01 05:55:08;;;;;;;1.38;1.00;;;;;;;14.61;100.00;99333.16;5031446;28;20215;-42
2023/08/01 05:57:33;;;;;;;1.48;0.90;;;;;;;14.56;100.00;99327.28;5031585;28;20263;-42
2023/08/01 05:59:59;;;;;;;2.25;1.10;;;;;;;14.65;100.00;99332.91;5031067;28;20255;-40
2023/08/01 06:02:24;;;;;;;1.20;0.82;;;;;;;14.56;100.00;99332.66;5030539;28;20275;-40
2023/08/01 06:04:50;;;;;;;0.80;0.77;;;;;;;14.63;100.00;99338.44;5030445;28;20168;-41
2023/08/01 06:07:15;;;;;;;2.22;0.90;;;;;;;14.62;100.00;99339.41;5030902;28;20302;-39
2023/08/01 06:09:41;;;;;;;1.77;0.90;;;;;;;14.62;100.00;99337.56;5031293;28;20164;-41
2023/08/01 06:12:07;;;;;;;4.45;1.20;;;;;;;14.58;100.00;99330.72;5030506;28;20666;-41
2023/08/01 06:14:32;;;;;;;0.90;0.90;;;;;;;14.64;100.00;99340.13;5029082;28;20188;-40
2023/08/01 06:16:58;;;;;;;2.55;1.20;;;;;;;14.65;100.00;99331.09;5030809;28;20362;-39
2023/08/01 06:19:23;;;;;;;0.98;0.88;;;;;;;14.76;100.00;99341.88;5031523;28;20255;-41
2023/08/01 06:21:49;;;;;;;1.25;1.15;;;;;;;14.62;100.00;99339.41;5029674;28;20164;-41
2023/08/01 06:24:15;;;;;;;0.90;0.88;;;;;;;14.65;100.00;99346.38;5030583;28;20279;-42
2023/08/01 06:26:40;;;;;;;1.00;1.00;;;;;;;14.71;100.00;99337.81;5029945;28;20219;-41
2023/08/01 06:29:06;;;;;;;1.10;1.00;;;;;;;14.63;100.00;99343.81;5029865;28;20238;-41
2023/08/01 06:31:31;;;;;;;1.98;0.77;;;;;;;14.58;100.00;99336.09;5029688;28;20198;-43
2023/08/01 06:33:57;;;;;;;2.28;1.13;;;;;;;14.68;100.00;99335.38;5029263;28;20182;-40
2023/08/01 06:36:22;;;;;;;0.80;0.80;;;;;;;14.63;100.00;99328.50;5029719;28;20738;-42
2023/08/01 06:38:48;;;;;;;0.68;0.68;;;;;;;14.65;100.00;99336.47;5030022;28;20266;-40
2023/08/01 06:41:13;;;;;;;0.77;0.70;;;;;;;14.66;100.00;99334.63;5029877;28;20174;-41
2023/08/01 06:43:39;;;;;;;2.72;2.53;;;;;;;14.66;100.00;99329.25;5029071;28;20271;-40
2023/08/01 06:46:04;;;;;;;2.63;1.05;;;;;;;14.50;100.00;99327.72;5028972;28;20297;-41
2023/08/01 06:48:34;;;;;;;1.13;0.90;;;;;;;14.58;100.00;99344.19;5030650;28;20214;-43
2023/08/01 06:51:01;;;;;;;4.90;1.17;;;;;;;14.53;100.00;99348.19;5029023;28;20179;-42
2023/08/01 06:53:26;;;;;;;2.50;0.80;;;;;;;14.56;100.00;99337.19;5030264;28;20226;-41
2023/08/01 06:55:52;;;;;;;3.78;2.75;;;;;;;14.53;100.00;99334.72;5028849;28;20172;-42
2023/08/01 06:58:17;;;;;;;2.17;1.98;;;;;;;14.51;100.00;99333.97;5029989;28;20168;-42
2023/08/01 07:00:44;;;;;;;6.35;5.78;;;;;;;14.66;100.00;99337.31;5030377;28;20582;-43
2023/08/01 07:03:09;;;;;;;7.25;6.60;;;;;;;14.73;100.00;99338.56;5029492;28;20310;-42
2023/08/01 07:05:35;;;;;;;6.20;5.78;;;;;;;14.88;100.00;99339.16;5028885;28;20559;-41
2023/08/01 07:08:00;;;;;;;4.80;4.40;;;;;;;14.92;100.00;99341.50;5030142;28;20257;-42
2023/08/01 07:10:26;;;;;;;2.70;2.50;;;;;;;14.98;100.00;99334.75;5029967;28;20644;-42
2023/08/01 07:12:51;;;;;;;2.90;2.63;;;;;;;14.97;100.00;99339.28;5028588;28;20159;-42
2023/08/01 07:15:17;;;;;;;4.32;2.40;;;;;;;15.06;100.00;99334.97;5030348;28;20547;-40
2023/08/01 07:17:42;;;;;;;2.67;1.70;;;;;;;14.90;100.00;99345.31;5030404;28;20191;-42
2023/08/01 07:20:08;;;;;;;2.03;1.67;;;;;;;14.94;100.00;99331.44;5031216;28;20184;-41
2023/08/01 07:22:33;;;;;;;1.60;1.50;;;;;;;14.94;100.00;99333.28;5030891;28;20230;-42
2023/08/01 07:24:59;;;;;;;1.30;1.23;;;;;;;14.90;100.00;99339.91;5030835;28;20172;-42
2023/08/01 07:27:24;;;;;;;1.40;1.30;;;;;;;14.98;100.00;99340.16;5030045;28;20227;-44
2023/08/01 07:29:50;;;;;;;1.40;1.30;;;;;;;14.89;100.00;99352.53;5030470;28;20182;-42
2023/08/01 07:32:17;;;;;;;1.60;1.50;;;;;;;14.89;100.00;99344.44;5030355;28;20620;-42
2023/08/01 07:34:43;;;;;;;1.30;1.20;;;;;;;14.84;100.00;99339.41;5030316;28;20168;-42
2023/08/01 07:37:09;;;;;;;1.20;1.20;;;;;;;15.01;100.00;99337.19;5029840;28;20206;-41
2023/08/01 07:39:34;;;;;;;1.58;1.48;;;;;;;15.03;100.00;99335.25;5030416;28;20172;-42
2023/08/01 07:42:00;;;;;;;1.58;1.40;;;;;;;15.03;100.00;99337.94;5030049;28;20172;-41
2023/08/01 07:44:26;;;;;;;1.55;1.42;;;;;;;15.00;100.00;99339.06;5028284;28;20291;-40
2023/08/01 07:46:51;;;;;;;1.40;1.30;;;;;;;15.11;100.00;99340.00;5029680;28;20231;-40
2023/08/01 07:49:17;;;;;;;2.22;1.33;;;;;;;15.43;100.00;99345.47;5029833;28;20193;-42
2023/08/01 07:51:42;;;;;;;1.83;1.73;;;;;;;15.41;100.00;99344.75;5029844;28;20172;-44
2023/08/01 07:54:08;;;;;;;2.50;1.60;;;;;;;15.35;100.00;99329.94;5029994;28;20164;-40
2023/08/01 07:56:33;;;;;;;1.95;1.40;;;;;;;15.35;100.00;99335.31;5029808;28;20211;-41
2023/08/01 07:58:59;;;;;;;2.45;1.50;;;;;;;15.42;100.00;99338.38;5030049;28;20172;-41
2023/08/01 08:01:24;;;;;;;1.75;1.48;;;;;;;15.46;100.00;99334.44;5029617;28;20170;-43
2023/08/01 08:03:50;;;;;;;2.78;2.03;;;;;;;15.56;100.00;99338.06;5029756;28;20203;-42
2023/08/01 08:06:16;;;;;;;1.70;1.60;;;;;;;15.59;100.00;99329.75;5029709;28;20669;-40
2023/08/01 08:08:41;;;;;;;2.45;1.70;;;;;;;15.56;100.00;99334.53;5029690;28;20602;-41
2023/08/01 08:11:06;;;;;;;1.90;1.80;;;;;;;15.53;100.00;99337.50;5029449;28;20183;-40
2023/08/01 08:13:32;;;;;;;2.13;1.65;;;;;;;15.59;100.00;99343.25;5028149;28;20259;-42
2023/08/01 08:15:59;;;;;;;2.05;1.80;;;;;;;15.71;100.00;99335.09;5029508;28;20176;-44
2023/08/01 08:18:25;;;;;;;2.92;2.10;;;;;;;15.72;100.00;99335.00;5029469;28;20263;-39
2023/08/01 08:20:50;;;;;;;2.92;2.13;;;;;;;15.83;100.00;99323.28;5029861;28;20179;-44
2023/08/01 08:23:16;;;;;;;2.80;2.28;;;;;;;15.74;100.00;99324.94;5031005;28;20200;-42
2023/08/01 08:25:44;;;;;;;4.15;2.50;;;;;;;15.89;100.00;99320.06;5034086;28;20495;-42
2023/08/01 08:28:11;;;;;;;5.00;2.80;;;;;;;15.86;100.00;99315.78;5032821;28;20187;-44
2023/08/01 08:30:37;;;;;;;3.08;2.80;;;;;;;15.92;100.00;99319.84;5032086;28;20201;-42
2023/08/01 08:33:04;;;;;;;4.30;2.65;;;;;;;15.96;100.00;99313.19;5033080;28;20191;-42
2023/08/01 08:35:34;;;;;;;4.45;2.97;;;;;;;15.86;100.00;99320.34;5033406;28;20167;-43
2023/08/01 08:38:02;;;;;;;3.58;3.28;;;;;;;16.15;100.00;99307.03;5033761;28;20282;-40
2023/08/01 08:40:27;;;;;;;4.55;3.50;;;;;;;16.79;100.00;99308.69;5027333;28;20610;-42
2023/08/01 08:42:54;;;;;;;7.60;3.97;;;;;;;17.14;100.00;99310.13;5011951;28;20299;-41
2023/08/01 08:45:21;;;;;;;8.02;4.13;;;;;;;17.68;100.00;99297.97;5012069;28;20275;-43
2023/08/01 08:47:55;;;;;;;5.53;3.33;;;;;;;17.96;100.00;99289.16;5013536;28;20201;-42
2023/08/01 08:50:21;;;;;;;4.22;3.13;;;;;;;18.23;100.00;99272.97;4996330;28;20168;-42
2023/08/01 08:52:47;;;;;;;3.13;2.60;;;;;;;18.41;100.00;99262.25;5013089;28;20238;-39
2023/08/01 08:55:13;;;;;;;3.22;2.63;;;;;;;18.43;100.00;99253.97;5013221;28;20183;-41
2023/08/01 08:57:39;;;;;;;4.43;2.55;;;;;;;18.71;100.00;99258.41;5013094;28;20502;-42
2023/08/01 09:00:06;;;;;;;3.60;2.20;;;;;;;19.18;100.00;99252.06;5013410;28;20684;-41
2023/08/01 09:02:32;;;;;;;3.53;2.65;;;;;;;18.65;100.00;99242.75;5013067;28;20173;-45
2023/08/01 09:04:58;;;;;;;3.97;2.35;;;;;;;18.90;100.00;99235.81;5013048;28;20169;-40
2023/08/01 09:07:30;;;;;;;3.88;1.98;;;;;;;19.06;100.00;99229.69;5013001;28;20193;-42
2023/08/01 09:09:55;;;;;;;4.25;2.03;;;;;;;18.89;100.00;99225.97;5012943;28;20165;-43
2023/08/01 09:12:21;;;;;;;2.67;1.88;;;;;;;19.10;100.00;99222.97;5012688;28;20244;-43
2023/08/01 09:14:50;;;;;;;4.25;2.17;;;;;;;19.21;100.00;99216.47;5028363;28;20229;-42
2023/08/01 09:17:18;;;;;;;3.78;1.95;;;;;;;19.48;100.00;99217.41;5032568;28;20261;-44
2023/08/01 09:19:44;;;;;;;5.07;1.88;;;;;;;19.31;100.00;99224.56;5032356;28;20279;-43
2023/08/01 09:22:11;;;;;;;4.45;2.05;;;;;;;19.43;100.00;99233.31;5032689;28;20606;-42
2023/08/01 09:24:36;;;;;;;3.47;1.50;;;;;;;18.86;100.00;99234.38;5032265;28;20737;-43
2023/08/01 09:27:08;;;;;;;3.20;1.70;;;;;;;18.94;100.00;99239.94;5032112;28;20270;-41
2023/08/01 09:29:33;;;;;;;3.42;1.35;;;;;;;18.49;100.00;99235.22;5032569;28;20271;-42
2023/08/01 09:31:59;;;;;;;1.98;1.10;;;;;;;17.88;100.00;99227.53;5032173;28;20730;-41
2023/08/01 09:34:26;;;;;;;2.80;1.52;;;;;;;18.10;100.00;99226.38;5030915;28;20168;-43
2023/08/01 09:36:59;;;;;;;2.75;1.70;;;;;;;18.11;100.00;99219.97;5031825;28;20200;-42
2023/08/01 09:39:24;;;;;;;3.90;1.55;;;;;;;17.83;100.00;99225.28;5030799;28;20167;-41
2023/08/01 09:42:01;;;;;;;2.67;1.55;;;;;;;18.07;100.00;99219.38;5032215;28;20176;-43
2023/08/01 09:44:28;;;;;;;6.47;2.00;;;;;;;17.75;100.00;99241.34;5031660;28;20664;-43
2023/08/01 09:47:02;;;;;;;3.05;1.58;;;;;;;17.59;100.00;99241.09;5031844;28;20203;-43
2023/08/01 09:49:29;;;;;;;4.97;1.98;;;;;;;17.45;100.00;99248.66;5031972;28;20186;-41
2023/08/01 09:51:55;;;;;;;5.07;1.90;;;;;;;17.91;100.00;99238.97;5031610;28;20168;-41
2023/08/01 09:54:21;;;;;;;2.85;1.50;;;;;;;17.65;100.00;99241.38;5031809;28;20286;-43
2023/08/01 09:56:49;;;;;;;4.13;1.50;;;;;;;17.68;100.00;99237.53;5031728;28;20196;-40
2023/08/01 09:59:23;;;;;;;5.22;1.50;;;;;;;17.19;100.00;99251.03;5031806;28;20172;-43
2023/08/01 10:01:50;;;;;;;5.10;1.42;;;;;;;17.23;100.00;99249.75;5030405;28;20176;-42
2023/08/01 10:04:20;;;;;;;3.67;1.55;;;;;;;17.21;100.00;99240.06;5031804;28;20514;-42
2023/08/01 10:06:49;;;;;;;2.78;1.23;;;;;;;17.10;100.00;99254.59;5031406;28;20708;-41
2023/08/01 10:09:16;;;;;;;2.90;1.30;;;;;;;17.13;100.00;99264.25;5031689;28;20248;-42
2023/08/01 10:11:42;;;;;;;4.43;1.58;;;;;;;17.02;100.00;99260.66;5031161;28;20187;-42
2023/08/01 10:14:08;;;;;;;2.95;1.38;;;;;;;17.06;100.00;99256.69;5031356;28;20262;-44
2023/08/01 10:16:36;;;;;;;2.10;1.30;;;;;;;17.42;100.00;99250.78;5029934;28;20195;-41
2023/08/01 10:19:04;;;;;;;2.42;1.58;;;;;;;18.03;100.00;99244.22;5030060;28;20191;-41
2023/08/01 10:21:30;;;;;;;3.70;1.60;;;;;;;18.42;100.00;99236.84;5031088;28;20176;-43
2023/08/01 10:23:58;;;;;;;3.92;1.15;;;;;;;17.92;100.00;99253.34;5029770;28;20257;-42
2023/08/01 10:26:24;;;;;;;4.05;1.80;;;;;;;17.71;100.00;99248.09;5030835;28;20292;-44
2023/08/01 10:28:51;;;;;;;5.07;1.70;;;;;;;17.67;100.00;99257.50;5030771;28;20682;-42
2023/08/01 10:31:18;;;;;;;3.35;1.30;;;;;;;17.54;100.00;99246.94;5031272;28;20251;-42
2023/08/01 10:33:48;;;;;;;5.90;1.60;;;;;;;17.41;100.00;99259.91;5031804;28;20593;-43
2023/08/01 10:36:17;;;;;;;3.97;1.40;;;;;;;17.45;100.00;99255.91;5031452;28;20192;-42
2023/08/01 10:38:51;;;;;;;3.38;1.73;;;;;;;17.61;100.00;99252.63;5031484;28;20183;-44
2023/08/01 10:41:31;;;;;;;7.18;1.40;;;;;;;17.86;100.00;99262.06;5031219;28;20187;-40
2023/08/01 10:44:14;;;;;;;1.27;0.98;;;;;;;17.87;100.00;99261.94;5029963;28;20245;-43
2023/08/01 10:46:52;;;;;;;3.40;1.10;;;;;;;17.89;100.00;99243.66;5030984;28;20211;-42
2023/08/01 10:49:18;;;;;;;4.97;1.58;;;;;;;18.09;100.00;99241.78;5031403;28;20543;-44
2023/08/01 10:51:44;;;;;;;1.70;0.98;;;;;;;18.32;100.00;99246.84;5029870;28;20243;-45
2023/08/01 10:54:21;;;;;;;2.35;1.00;;;;;;;18.03;100.00;99242.34;5031067;28;20168;-39
2023/08/01 10:56:47;;;;;;;3.42;1.40;;;;;;;17.79;100.00;99256.31;5030879;28;20570;-41
2023/08/01 10:59:14;;;;;;;1.35;0.95;;;;;;;17.44;100.00;99257.75;5031217;28;20168;-44
2023/08/01 11:01:49;;;;;;;3.22;1.10;;;;;;;17.42;100.00;99251.63;5031236;28;20263;-40
2023/08/01 11:04:18;;;;;;;2.70;1.20;;;;;;;17.74;100.00;99252.34;5031008;28;20692;-44
2023/08/01 11:06:46;;;;;;;2.80;1.20;;;;;;;17.91;100.00;99248.97;5030664;28;20208;-41
2023/08/01 11:09:16;;;;;;;3.38;1.10;;;;;;;18.12;100.00;99252.31;5031014;28;20172;-42
2023/08/01 11:11:41;;;;;;;3.75;1.67;;;;;;;18.23;100.00;99253.16;5005666;22;20657;-46
2023/08/01 11:14:07;;;;;;;3.42;1.33;;;;;;;18.70;100.00;99245.88;4987243;28;20269;-45
2023/08/01 11:16:32;;;;;;;4.47;1.17;;;;;;;18.90;100.00;99241.22;4988096;28;20292;-48
2023/08/01 11:18:58;;;;;;;2.60;1.27;;;;;;;19.10;100.00;99246.53;4988325;28;20178;-46